Time;durP1;ratioP1;P1;durP2;ratioP2;P2;SDS_P1;SDS_P2;PMS_P1;PMS_P2;Temp;Humidity;BMP_temperature;BMP_pressure;BME280_temperature;BME280_humidity;BME280_pressure;Samples;Min_cycle;Max_cycle;Signal;HPM_P1;HPM_P2
2022/06/07 00:02:15;;;;;;;43.33;22.50;;;;;;;13.08;100.00;101018.72;5074897;28;20468;-76
2022/06/07 00:04:41;;;;;;;41.38;21.13;;;;;;;13.04;100.00;101014.50;5091808;28;20042;-76
2022/06/07 00:07:08;;;;;;;46.28;21.40;;;;;;;12.88;100.00;101021.31;5075685;28;20036;-76
2022/06/07 00:09:34;;;;;;;43.10;23.27;;;;;;;12.89;100.00;101013.97;5070461;28;20121;-77
2022/06/07 00:12:00;;;;;;;42.72;23.00;;;;;;;12.79;100.00;101011.13;5080625;28;20048;-76
2022/06/07 00:14:26;;;;;;;40.80;21.50;;;;;;;12.83;100.00;101015.34;5067056;28;20024;-78
2022/06/07 00:16:54;;;;;;;44.90;23.70;;;;;;;12.78;100.00;101014.00;5083204;28;20040;-77
2022/06/07 00:19:20;;;;;;;40.33;22.67;;;;;;;12.70;100.00;101014.66;5087240;28;20035;-77
2022/06/07 00:21:46;;;;;;;50.92;25.02;;;;;;;12.54;100.00;101006.84;5089808;28;21873;-76
2022/06/07 00:24:13;;;;;;;43.10;23.95;;;;;;;12.62;100.00;101006.22;5074794;28;20036;-77
2022/06/07 00:26:39;;;;;;;51.03;26.50;;;;;;;12.57;100.00;101003.84;5077501;28;20399;-76
2022/06/07 00:29:08;;;;;;;48.63;25.88;;;;;;;12.55;100.00;101003.13;5083007;28;20040;-76
2022/06/07 00:31:35;;;;;;;47.80;24.52;;;;;;;12.61;100.00;100998.97;5081856;28;20032;-76
2022/06/07 00:34:04;;;;;;;47.00;25.48;;;;;;;12.58;100.00;101002.00;5081364;28;20317;-77
2022/06/07 00:36:29;;;;;;;43.55;25.98;;;;;;;12.58;100.00;100999.25;5080320;28;20411;-77
2022/06/07 00:38:55;;;;;;;54.63;26.85;;;;;;;12.50;100.00;100992.50;5071696;28;20028;-77
2022/06/07 00:41:20;;;;;;;50.55;26.88;;;;;;;12.50;100.00;100991.66;5062375;28;20027;-77
2022/06/07 00:44:20;;;;;;;46.65;25.92;;;;;;;12.57;100.00;100997.50;5075981;28;20084;-77
2022/06/07 00:46:46;;;;;;;53.05;27.70;;;;;;;12.54;100.00;100984.00;5080566;28;20036;-77
2022/06/07 00:49:15;;;;;;;48.20;25.92;;;;;;;12.59;100.00;100985.38;5084215;28;20024;-77
2022/06/07 00:51:41;;;;;;;50.25;26.90;;;;;;;12.55;100.00;100980.28;5074884;28;20032;-77
2022/06/07 00:54:06;;;;;;;55.45;26.80;;;;;;;12.63;100.00;100981.34;5056977;28;20068;-77
2022/06/07 00:56:32;;;;;;;46.20;26.48;;;;;;;12.67;100.00;100987.44;5058180;28;20102;-77
2022/06/07 00:59:03;;;;;;;48.47;26.85;;;;;;;12.60;100.00;100981.63;5078892;28;20105;-77
2022/06/07 01:01:30;;;;;;;50.70;25.52;;;;;;;12.64;100.00;100988.59;5057948;28;20028;-77
2022/06/07 01:03:56;;;;;;;48.33;26.45;;;;;;;12.63;100.00;100983.25;5081104;28;20032;-77
2022/06/07 01:11:50;;;;;;;46.60;25.58;;;;;;;12.49;100.00;100973.41;5075161;28;20051;-77
2022/06/07 01:14:15;;;;;;;42.40;24.88;;;;;;;12.54;100.00;100976.63;5081450;28;20033;-77
2022/06/07 01:16:41;;;;;;;46.17;23.80;;;;;;;12.53;100.00;100972.16;5072395;28;20043;-77
2022/06/07 01:19:07;;;;;;;45.70;24.77;;;;;;;12.59;100.00;100971.66;5075765;28;20089;-77
2022/06/07 01:21:35;;;;;;;40.25;22.92;;;;;;;12.50;100.00;100970.53;5082147;28;20394;-77
2022/06/07 01:24:01;;;;;;;48.42;23.65;;;;;;;12.58;100.00;100972.66;5072258;28;20028;-77
2022/06/07 01:26:26;;;;;;;42.03;23.40;;;;;;;12.62;100.00;100965.88;5056846;28;20036;-77
2022/06/07 01:28:52;;;;;;;37.53;22.65;;;;;;;12.56;100.00;100969.16;5070280;28;20371;-77
2022/06/07 01:31:17;;;;;;;42.67;21.70;;;;;;;12.61;100.00;100961.41;5074688;28;20408;-78
2022/06/07 01:33:43;;;;;;;39.75;20.77;;;;;;;12.62;100.00;100959.50;5063116;28;20045;-77
2022/06/07 01:36:11;;;;;;;29.17;19.23;;;;;;;12.61;100.00;100957.75;5080895;28;20040;-77
2022/06/07 01:38:40;;;;;;;32.92;19.27;;;;;;;12.59;100.00;100955.16;5076991;28;20039;-77
2022/06/07 01:44:07;;;;;;;32.80;17.50;;;;;;;12.80;100.00;100946.06;4994544;28;20037;-77
2022/06/07 01:46:32;;;;;;;32.55;17.38;;;;;;;12.82;100.00;100952.28;5064388;28;20048;-77
2022/06/07 01:48:58;;;;;;;30.23;15.98;;;;;;;12.88;100.00;100952.63;5074357;28;20050;-77
2022/06/07 01:51:23;;;;;;;29.95;15.95;;;;;;;12.85;100.00;100943.78;5073132;28;20471;-77
2022/06/07 01:53:49;;;;;;;31.90;15.85;;;;;;;12.85;100.00;100943.78;5054722;28;20051;-77
2022/06/07 01:56:16;;;;;;;33.90;15.45;;;;;;;12.85;100.00;100947.41;5060832;28;20090;-77
2022/06/07 01:58:43;;;;;;;25.70;15.60;;;;;;;12.88;100.00;100941.63;5073843;28;20036;-77
2022/06/07 02:01:10;;;;;;;28.83;15.38;;;;;;;12.87;100.00;100944.50;5095362;28;20039;-76
2022/06/07 02:03:36;;;;;;;29.17;14.48;;;;;;;12.83;100.00;100943.03;5075854;28;20021;-77
2022/06/07 02:06:09;;;;;;;34.22;14.32;;;;;;;12.87;100.00;100944.50;5093164;28;20070;-77
2022/06/07 02:08:36;;;;;;;27.00;13.00;;;;;;;12.83;100.00;100943.03;5093254;28;20032;-77
2022/06/07 02:11:11;;;;;;;26.02;13.73;;;;;;;12.83;100.00;100948.53;5073167;28;20496;-77
2022/06/07 02:13:36;;;;;;;22.95;11.52;;;;;;;12.82;100.00;100936.69;5078162;28;20107;-77
2022/06/07 02:16:03;;;;;;;22.25;11.77;;;;;;;12.81;100.00;100940.44;5088649;28;20033;-77
2022/06/07 02:18:29;;;;;;;20.38;11.63;;;;;;;12.78;100.00;100939.81;5082107;28;20422;-77
2022/06/07 02:20:56;;;;;;;20.55;12.05;;;;;;;12.68;100.00;100932.38;5080419;28;20031;-77
2022/06/07 02:23:22;;;;;;;17.60;10.25;;;;;;;12.69;100.00;100933.22;5091400;28;20044;-77
2022/06/07 02:25:55;;;;;;;29.42;10.80;;;;;;;12.61;100.00;100925.69;5092945;28;20036;-77
2022/06/07 02:28:25;;;;;;;19.98;10.50;;;;;;;12.57;100.00;100931.56;5085176;28;20060;-77
2022/06/07 02:30:52;;;;;;;20.83;9.73;;;;;;;12.55;100.00;100930.84;5085256;28;20402;-77
2022/06/07 02:33:18;;;;;;;18.30;10.38;;;;;;;12.56;100.00;100924.31;5082599;28;20119;-77
2022/06/07 02:35:44;;;;;;;19.67;8.93;;;;;;;12.49;100.00;100926.72;5089929;28;20082;-77
2022/06/07 02:38:11;;;;;;;19.00;9.80;;;;;;;12.47;100.00;100918.63;5067576;28;20510;-77
2022/06/07 02:40:37;;;;;;;14.52;9.35;;;;;;;12.42;100.00;100922.78;5057874;28;20810;-76
2022/06/07 02:43:03;;;;;;;15.35;8.38;;;;;;;12.36;100.00;100920.56;5085467;28;20024;-77
2022/06/07 02:45:29;;;;;;;17.13;9.40;;;;;;;12.30;100.00;100911.84;5059726;28;20040;-77
2022/06/07 02:47:54;;;;;;;18.75;9.05;;;;;;;12.25;100.00;100916.88;5078187;28;20044;-77
2022/06/07 02:50:21;;;;;;;26.48;9.48;;;;;;;12.36;100.00;100907.69;5074993;28;20032;-76
2022/06/07 02:52:46;;;;;;;20.02;8.73;;;;;;;12.27;100.00;100903.88;5075300;28;20394;-77
2022/06/07 02:55:12;;;;;;;18.33;9.40;;;;;;;12.24;100.00;100912.38;5065056;28;20112;-77
2022/06/07 02:57:38;;;;;;;21.08;8.75;;;;;;;12.31;100.00;100915.44;5069131;28;20060;-77
2022/06/07 03:00:06;;;;;;;17.00;8.23;;;;;;;12.26;100.00;100914.97;5058220;28;20044;-76
2022/06/07 03:02:32;;;;;;;16.52;8.60;;;;;;;12.27;100.00;100920.34;5081057;28;20064;-77
2022/06/07 03:04:57;;;;;;;23.40;9.73;;;;;;;12.21;100.00;100911.75;5081870;28;20108;-77
2022/06/07 03:07:23;;;;;;;25.67;9.32;;;;;;;12.23;100.00;100913.38;5079037;28;20036;-76
2022/06/07 03:09:48;;;;;;;15.10;8.07;;;;;;;12.25;100.00;100911.38;5082003;28;20036;-77
2022/06/07 03:12:14;;;;;;;21.60;7.93;;;;;;;12.29;100.00;100917.47;5078991;28;20036;-77
2022/06/07 03:14:39;;;;;;;14.75;7.80;;;;;;;12.28;100.00;100922.09;5065631;28;20506;-77
2022/06/07 03:17:06;;;;;;;16.70;7.60;;;;;;;12.27;100.00;100917.59;5082181;28;20067;-77
2022/06/07 03:19:32;;;;;;;14.70;6.57;;;;;;;12.36;100.00;100918.66;5085719;28;20039;-77
2022/06/07 03:21:58;;;;;;;26.17;8.25;;;;;;;12.32;100.00;100919.97;5074357;28;20476;-76
2022/06/07 03:24:26;;;;;;;11.85;6.80;;;;;;;12.30;100.00;100919.22;5073568;28;20033;-77
2022/06/07 03:26:52;;;;;;;17.40;7.80;;;;;;;12.31;100.00;100921.84;5079364;28;20399;-77
2022/06/07 03:29:17;;;;;;;11.35;7.00;;;;;;;12.31;100.00;100924.59;5081488;28;20045;-77
2022/06/07 03:31:43;;;;;;;15.50;7.32;;;;;;;12.31;100.00;100929.19;5074488;28;20043;-77
2022/06/07 03:34:08;;;;;;;13.90;7.40;;;;;;;12.32;100.00;100936.44;5090109;28;20071;-77
2022/06/07 03:36:34;;;;;;;18.98;7.60;;;;;;;12.42;100.00;100931.88;5076067;28;20127;-77
2022/06/07 03:39:06;;;;;;;16.02;7.22;;;;;;;12.37;100.00;100933.28;5056240;28;20053;-77
2022/06/07 03:41:32;;;;;;;11.95;6.63;;;;;;;12.39;100.00;100934.88;5073717;28;20111;-77
2022/06/07 03:43:58;;;;;;;13.25;6.57;;;;;;;12.32;100.00;100930.94;5077370;28;20105;-77
2022/06/07 03:46:25;;;;;;;19.42;7.03;;;;;;;12.39;100.00;100931.28;5067267;28;20033;-77
2022/06/07 03:48:52;;;;;;;16.27;6.40;;;;;;;12.41;100.00;100937.50;5073053;28;20369;-77
2022/06/07 03:51:19;;;;;;;12.85;5.97;;;;;;;12.48;100.00;100950.59;5073896;28;20024;-77
2022/06/07 03:53:45;;;;;;;16.52;6.22;;;;;;;12.38;100.00;100943.25;5091067;28;20115;-78
2022/06/07 03:56:11;;;;;;;25.05;8.15;;;;;;;12.35;100.00;100946.25;5085009;28;20056;-77
2022/06/07 03:58:40;;;;;;;11.02;6.15;;;;;;;12.37;100.00;100947.03;5074541;28;20071;-78
2022/06/07 04:01:15;;;;;;;24.40;7.03;;;;;;;12.44;100.00;100948.22;5083212;28;20054;-77
2022/06/07 04:03:43;;;;;;;18.35;6.32;;;;;;;12.40;100.00;100941.28;5085441;28;20058;-78
2022/06/07 04:06:20;;;;;;;12.82;6.20;;;;;;;12.46;100.00;100952.59;5073497;28;20071;-77
2022/06/07 04:08:46;;;;;;;18.63;6.05;;;;;;;12.48;100.00;100953.34;5076457;28;20067;-78
2022/06/07 04:11:14;;;;;;;20.67;5.68;;;;;;;12.46;100.00;100951.72;5073517;28;20036;-77
2022/06/07 04:13:40;;;;;;;11.90;5.80;;;;;;;12.46;100.00;100959.94;5076332;28;20024;-77
2022/06/07 04:16:12;;;;;;;14.73;6.13;;;;;;;12.50;100.00;100950.47;5080519;28;20051;-77
2022/06/07 04:18:39;;;;;;;12.73;5.57;;;;;;;12.49;100.00;100954.19;5080842;28;20020;-77
2022/06/07 04:21:06;;;;;;;15.98;5.47;;;;;;;12.57;100.00;100964.53;5044508;28;20041;-77
2022/06/07 04:23:32;;;;;;;14.93;6.00;;;;;;;12.61;100.00;100953.16;5079805;28;20020;-77
2022/06/07 04:26:12;;;;;;;13.73;5.93;;;;;;;12.53;100.00;100955.69;5077044;28;20032;-77
2022/06/07 04:28:38;;;;;;;17.60;5.55;;;;;;;12.59;100.00;100948.78;5061423;28;20055;-77
2022/06/07 04:31:10;;;;;;;14.77;6.18;;;;;;;12.60;100.00;100947.78;5062126;28;20365;-77
2022/06/07 04:33:35;;;;;;;21.98;6.35;;;;;;;12.61;100.00;100949.50;5085088;28;20036;-77
2022/06/07 04:36:01;;;;;;;16.10;5.60;;;;;;;12.56;100.00;100952.69;5088255;28;20033;-76
2022/06/07 04:38:26;;;;;;;21.42;5.85;;;;;;;12.61;100.00;100957.75;5071678;28;20041;-77
2022/06/07 04:40:52;;;;;;;16.77;5.78;;;;;;;12.57;100.00;100942.56;5071182;28;20399;-77
2022/06/07 04:43:17;;;;;;;15.60;5.78;;;;;;;12.60;100.00;100958.78;5069260;28;20032;-77
2022/06/07 04:45:43;;;;;;;19.65;5.43;;;;;;;12.64;100.00;100943.75;5057088;28;20483;-78
2022/06/07 04:48:10;;;;;;;12.73;5.88;;;;;;;12.63;100.00;100958.53;5040184;28;20032;-77
2022/06/07 04:50:36;;;;;;;15.23;5.97;;;;;;;12.63;100.00;100944.78;5076474;28;20111;-77
2022/06/07 04:53:02;;;;;;;12.95;5.45;;;;;;;12.69;100.00;100950.63;5073937;28;20443;-76
2022/06/07 04:55:27;;;;;;;10.88;5.47;;;;;;;12.74;100.00;100954.81;5082171;28;20048;-77
2022/06/07 04:57:53;;;;;;;14.02;6.70;;;;;;;12.69;100.00;100955.22;5068452;28;20036;-75
2022/06/07 05:00:19;;;;;;;16.77;6.13;;;;;;;12.74;100.00;100960.31;5068151;28;20115;-76
2022/06/07 05:02:47;;;;;;;12.18;5.40;;;;;;;12.64;100.00;100957.50;5079556;28;20032;-76
2022/06/07 05:05:15;;;;;;;19.17;5.85;;;;;;;12.72;100.00;100965.94;5077606;28;20039;-76
2022/06/07 05:07:40;;;;;;;20.45;5.85;;;;;;;12.74;100.00;100966.72;5089215;28;20039;-76
2022/06/07 05:10:13;;;;;;;13.23;5.65;;;;;;;12.89;100.00;100964.50;5085231;28;20376;-76
2022/06/07 05:12:38;;;;;;;11.38;6.22;;;;;;;12.89;100.00;100967.25;5089008;28;20032;-76
2022/06/07 05:15:06;;;;;;;22.52;6.70;;;;;;;12.91;100.00;100970.72;5088918;28;20031;-76
2022/06/07 05:17:32;;;;;;;16.60;6.43;;;;;;;13.08;100.00;100968.38;5073154;28;20040;-77
2022/06/07 05:19:58;;;;;;;10.15;5.78;;;;;;;12.94;100.00;100970.47;5074422;28;20024;-76
2022/06/07 05:22:24;;;;;;;16.08;6.40;;;;;;;12.99;100.00;100970.91;5071272;28;20482;-76
2022/06/07 05:24:50;;;;;;;17.95;6.10;;;;;;;13.08;100.00;100966.47;5071697;28;20044;-76
2022/06/07 05:27:20;;;;;;;12.43;6.43;;;;;;;13.11;100.00;100979.97;5075785;28;20038;-76
2022/06/07 05:29:49;;;;;;;17.98;7.40;;;;;;;13.18;100.00;100966.53;5113377;28;20028;-76
2022/06/07 05:32:16;;;;;;;13.52;7.07;;;;;;;13.23;100.00;100967.00;5058864;28;20047;-76
2022/06/07 05:34:41;;;;;;;21.65;7.53;;;;;;;13.41;100.00;100970.91;5099566;28;20036;-76
2022/06/07 05:37:07;;;;;;;13.20;7.18;;;;;;;13.42;100.00;100966.28;5078870;28;20032;-77
2022/06/07 05:39:32;;;;;;;16.50;8.00;;;;;;;13.50;100.00;100973.84;5084197;28;20103;-76
2022/06/07 05:42:00;;;;;;;16.00;7.60;;;;;;;13.45;100.00;100971.50;5080875;28;20052;-76
2022/06/07 05:44:27;;;;;;;15.73;7.03;;;;;;;13.58;100.00;100963.88;5083201;28;20069;-75
2022/06/07 05:46:52;;;;;;;22.42;6.75;;;;;;;13.62;100.00;100975.47;5068479;28;20043;-76
2022/06/07 05:49:19;;;;;;;20.83;7.45;;;;;;;13.92;100.00;100977.34;5055727;28;20024;-76
2022/06/07 05:51:45;;;;;;;22.13;7.03;;;;;;;13.64;100.00;100978.97;5079209;28;20522;-76
2022/06/07 05:54:12;;;;;;;14.77;6.80;;;;;;;13.70;100.00;100983.91;5080933;28;20033;-76
2022/06/07 05:56:38;;;;;;;14.07;7.68;;;;;;;13.73;100.00;100980.03;5062797;28;20035;-76
2022/06/07 05:59:06;;;;;;;20.45;7.32;;;;;;;13.95;100.00;100976.19;5081416;28;20028;-76
2022/06/07 06:01:33;;;;;;;27.70;7.95;;;;;;;14.03;100.00;100980.97;5073255;28;20039;-76
2022/06/07 06:03:59;;;;;;;22.75;7.90;;;;;;;14.31;100.00;100990.31;5075923;28;20048;-75
2022/06/07 06:06:25;;;;;;;19.45;7.88;;;;;;;14.36;100.00;100985.25;5057657;28;20035;-76
2022/06/07 06:11:36;;;;;;;22.48;10.15;;;;;;;13.98;100.00;100984.16;5091085;28;20464;-76
2022/06/07 06:14:03;;;;;;;21.73;9.60;;;;;;;14.18;100.00;100976.81;5060533;28;20071;-76
2022/06/07 06:16:28;;;;;;;33.58;11.07;;;;;;;14.36;100.00;100965.97;5061101;28;20119;-76
2022/06/07 06:18:57;;;;;;;32.80;11.95;;;;;;;14.53;100.00;100972.66;5089019;28;20034;-76
2022/06/07 06:21:27;;;;;;;30.17;11.65;;;;;;;14.58;100.00;100986.88;5076586;28;20522;-77
2022/06/07 06:23:52;;;;;;;32.88;13.15;;;;;;;14.59;100.00;100987.72;5095699;28;20360;-76
2022/06/07 06:26:20;;;;;;;23.02;12.15;;;;;;;14.61;100.00;100982.97;5064426;28;20051;-76
2022/06/07 06:28:46;;;;;;;30.33;14.05;;;;;;;14.48;100.00;100981.34;5079391;28;20443;-76
2022/06/07 06:31:13;;;;;;;32.05;14.68;;;;;;;14.48;100.00;100970.34;5077986;28;20032;-76
2022/06/07 06:33:48;;;;;;;26.48;13.45;;;;;;;14.69;100.00;100978.50;5048883;28;20048;-76
2022/06/07 06:36:18;;;;;;;29.67;13.68;;;;;;;14.73;100.00;100976.31;5074548;28;20037;-76
2022/06/07 06:39:16;;;;;;;32.80;14.88;;;;;;;14.72;100.00;100977.31;5078886;28;20040;-75
2022/06/07 06:41:45;;;;;;;33.28;15.27;;;;;;;14.93;100.00;100979.91;5040400;28;20119;-76
2022/06/07 06:44:11;;;;;;;29.38;13.88;;;;;;;15.04;100.00;100984.41;5079199;28;20039;-76
2022/06/07 06:46:39;;;;;;;26.35;14.00;;;;;;;14.93;100.00;100977.16;5067420;28;20037;-77
2022/06/07 06:49:06;;;;;;;30.40;14.40;;;;;;;15.05;100.00;100975.09;5080627;28;20036;-77
2022/06/07 06:51:31;;;;;;;32.45;13.25;;;;;;;15.19;100.00;100980.16;5075851;28;20040;-77
2022/06/07 06:54:02;;;;;;;27.60;13.75;;;;;;;14.94;100.00;100978.03;5059634;28;20391;-77
2022/06/07 06:56:29;;;;;;;29.77;13.32;;;;;;;15.06;100.00;100982.38;5074080;28;20058;-77
2022/06/07 06:58:56;;;;;;;37.22;14.73;;;;;;;15.14;100.00;100993.53;5076735;28;20033;-77
2022/06/07 07:01:27;;;;;;;26.60;12.90;;;;;;;15.08;100.00;100994.13;5075865;28;20032;-77
2022/06/07 07:03:53;;;;;;;48.45;12.98;;;;;;;15.12;100.00;100994.69;5072699;28;20093;-77
2022/06/07 07:06:20;;;;;;;27.88;11.98;;;;;;;15.31;100.00;100991.88;5041124;28;20050;-77
2022/06/07 07:08:47;;;;;;;27.90;13.35;;;;;;;15.54;100.00;100992.41;5073558;28;20044;-77
2022/06/07 07:11:26;;;;;;;27.15;12.00;;;;;;;15.67;100.00;100991.19;5079624;28;20041;-75
2022/06/07 07:13:54;;;;;;;26.00;12.48;;;;;;;15.59;100.00;100984.56;5063667;28;20024;-76
2022/06/07 07:16:23;;;;;;;35.17;12.32;;;;;;;15.67;100.00;100993.97;5081921;28;20122;-76
2022/06/07 07:18:49;;;;;;;24.33;12.00;;;;;;;15.89;100.00;100992.72;5089266;28;20036;-76
2022/06/07 07:21:21;;;;;;;32.63;13.02;;;;;;;16.07;100.00;100990.00;5094227;28;20040;-76
2022/06/07 07:23:47;;;;;;;27.97;13.13;;;;;;;16.07;100.00;100992.78;5078663;28;20056;-76
2022/06/07 07:26:21;;;;;;;24.27;11.75;;;;;;;16.35;100.00;100991.72;5074678;28;20029;-76
2022/06/07 07:28:49;;;;;;;26.77;13.00;;;;;;;16.23;100.00;100989.34;5078154;28;20071;-77
2022/06/07 07:31:18;;;;;;;29.08;12.30;;;;;;;16.92;100.00;100996.09;5076041;28;20056;-76
2022/06/07 07:33:45;;;;;;;22.80;12.27;;;;;;;16.66;100.00;100996.00;5044631;28;1332815;-77
2022/06/07 07:36:11;;;;;;;41.13;12.90;;;;;;;17.16;100.00;100997.34;5085098;28;20107;-77
2022/06/07 07:38:37;;;;;;;25.13;11.48;;;;;;;17.22;100.00;100993.94;5073456;28;20151;-76
2022/06/07 07:41:03;;;;;;;21.85;11.38;;;;;;;17.72;100.00;100995.13;5080412;28;20546;-77
2022/06/07 07:43:29;;;;;;;24.08;11.70;;;;;;;18.11;100.00;100995.50;5061965;28;20036;-76
2022/06/07 07:45:56;;;;;;;24.00;12.43;;;;;;;18.11;100.00;100992.72;5082496;28;20041;-76
2022/06/07 07:48:23;;;;;;;26.73;12.07;;;;;;;19.01;100.00;100993.97;5058968;28;20436;-76
2022/06/07 07:50:49;;;;;;;25.00;13.48;;;;;;;18.11;100.00;100987.19;5078092;28;20123;-77
2022/06/07 07:53:17;;;;;;;28.48;13.13;;;;;;;18.10;100.00;100981.81;5073722;28;20502;-76
2022/06/07 07:55:45;;;;;;;26.63;12.68;;;;;;;18.76;100.00;100987.50;5072531;28;20060;-77
2022/06/07 07:58:12;;;;;;;27.75;13.05;;;;;;;18.54;100.00;100988.00;5074029;28;20041;-77
2022/06/07 08:00:45;;;;;;;24.23;12.35;;;;;;;18.78;100.00;100983.50;5072886;28;20024;-77
2022/06/07 08:03:10;;;;;;;21.38;11.32;;;;;;;19.51;100.00;100984.50;5075790;28;20478;-76
2022/06/07 08:05:36;;;;;;;24.95;11.65;;;;;;;19.70;100.00;100976.84;5065814;28;20036;-77
2022/06/07 08:08:02;;;;;;;24.23;10.38;;;;;;;19.73;100.00;100976.50;5085040;28;20093;-77
2022/06/07 08:10:29;;;;;;;24.20;10.07;;;;;;;18.91;100.00;100971.94;5073582;28;20056;-77
2022/06/07 08:12:58;;;;;;;17.77;9.85;;;;;;;19.32;100.00;100974.69;5074214;28;20048;-76
2022/06/07 08:15:25;;;;;;;20.00;8.90;;;;;;;19.78;100.00;100974.94;5074601;28;20028;-77
2022/06/07 08:17:52;;;;;;;16.05;6.97;;;;;;;19.97;100.00;100979.22;5073441;28;20032;-77
2022/06/07 08:20:20;;;;;;;15.20;6.60;;;;;;;19.94;100.00;100981.47;5088545;28;20107;-77
2022/06/07 08:22:45;;;;;;;16.92;7.72;;;;;;;18.84;100.00;100966.22;5090516;28;20107;-77
2022/06/07 08:25:12;;;;;;;14.13;6.43;;;;;;;19.26;100.00;100976.22;5057737;28;20039;-77
2022/06/07 08:27:38;;;;;;;21.92;6.07;;;;;;;19.91;100.00;100973.50;5083148;28;20380;-77
2022/06/07 08:30:05;;;;;;;21.70;6.60;;;;;;;19.30;100.00;100979.56;5076097;28;20114;-78
2022/06/07 08:32:32;;;;;;;17.17;7.07;;;;;;;19.00;100.00;100973.66;5073173;28;20499;-77
2022/06/07 08:37:41;;;;;;;18.27;6.88;;;;;;;19.38;100.00;100965.66;5072356;28;20102;-77
2022/06/07 08:40:33;;;;;;;20.35;6.07;;;;;;;20.18;100.00;100972.16;5072739;28;20472;-77
2022/06/07 08:43:01;;;;;;;17.50;5.93;;;;;;;20.63;100.00;100969.59;5073658;28;20476;-77
2022/06/07 08:45:31;;;;;;;20.33;5.32;;;;;;;19.95;100.00;100974.88;5072648;28;20059;-76
2022/06/07 08:48:20;;;;;;;19.48;5.30;;;;;;;20.60;100.00;100961.66;5055795;28;20032;-77
2022/06/07 08:50:54;;;;;;;26.42;7.90;;;;;;;19.37;100.00;100963.06;5080636;28;20033;-77
2022/06/07 08:53:25;;;;;;;19.55;7.40;;;;;;;19.17;100.00;100971.75;5055385;28;20020;-77
2022/06/07 08:55:58;;;;;;;20.27;7.40;;;;;;;19.29;100.00;100964.78;5078779;28;20036;-77
2022/06/07 08:58:27;;;;;;;15.73;7.15;;;;;;;20.17;100.00;100953.75;5072099;28;20162;-77
2022/06/07 09:00:58;;;;;;;16.10;6.15;;;;;;;20.93;100.00;100973.41;5071918;28;20036;-77
2022/06/07 09:03:57;;;;;;;19.88;6.80;;;;;;;20.64;100.00;100972.25;5076216;28;20533;-77
2022/06/07 09:06:25;;;;;;;14.40;5.50;;;;;;;20.21;100.00;100969.00;5074456;28;20089;-77
2022/06/07 09:08:54;;;;;;;12.45;5.18;;;;;;;19.43;100.00;100971.53;5080085;28;20066;-77
2022/06/07 09:14:24;;;;;;;14.57;3.95;;;;;;;19.48;100.00;100962.69;5090082;28;20028;-76
2022/06/07 09:16:50;;;;;;;15.85;4.63;;;;;;;19.73;100.00;100960.69;5073538;28;20036;-76
2022/06/07 09:19:21;;;;;;;18.65;4.68;;;;;;;20.64;100.00;100965.81;5083879;28;20040;-76
2022/06/07 09:21:46;;;;;;;13.95;4.88;;;;;;;20.60;100.00;100968.06;5075801;28;20032;-76
2022/06/07 09:24:25;;;;;;;16.17;4.47;;;;;;;19.84;100.00;100956.69;5074854;28;20089;-76
2022/06/07 09:26:51;;;;;;;18.52;4.90;;;;;;;20.12;100.00;100954.28;5087324;28;20047;-76
2022/06/07 09:29:21;;;;;;;16.08;5.80;;;;;;;20.10;100.00;100949.94;5075259;28;20036;-75
2022/06/07 09:31:49;;;;;;;14.98;5.38;;;;;;;19.80;100.00;100953.38;5073607;28;20040;-75
2022/06/07 09:34:23;;;;;;;18.70;5.43;;;;;;;21.01;100.00;100959.44;5072353;28;20044;-75
2022/06/07 09:36:55;;;;;;;14.80;5.05;;;;;;;20.56;100.00;100959.25;5075378;28;20035;-76
2022/06/07 09:39:37;;;;;;;22.25;6.65;;;;;;;20.59;100.00;100949.63;5071716;28;20050;-75
2022/06/07 09:42:26;;;;;;;22.52;6.25;;;;;;;20.74;100.00;100956.19;5065350;28;20032;-76
2022/06/07 09:44:57;;;;;;;18.13;5.75;;;;;;;20.06;100.00;100954.16;5071637;28;20392;-76
2022/06/07 09:47:28;;;;;;;22.30;6.40;;;;;;;19.96;100.00;100948.81;5072708;28;20036;-76
2022/06/07 09:49:56;;;;;;;24.00;5.95;;;;;;;20.09;100.00;100957.44;5071966;28;20437;-77
2022/06/07 09:52:25;;;;;;;13.13;4.30;;;;;;;20.12;100.00;100945.97;5055630;28;20387;-77
2022/06/07 09:55:13;;;;;;;11.13;4.90;;;;;;;19.97;100.00;100951.41;5072960;28;20024;-77
2022/06/07 09:58:05;;;;;;;17.50;5.38;;;;;;;20.58;100.00;100942.38;5077975;28;20036;-76
2022/06/07 10:00:43;;;;;;;14.73;5.20;;;;;;;21.02;100.00;100946.38;5070661;28;20049;-77
2022/06/07 10:03:33;;;;;;;12.18;4.45;;;;;;;20.69;100.00;100949.44;5071784;28;20090;-76
2022/06/07 10:06:16;;;;;;;14.68;4.95;;;;;;;20.69;100.00;100955.00;5074885;28;20036;-77
2022/06/07 10:08:49;;;;;;;19.25;5.78;;;;;;;20.54;100.00;100949.34;5072683;28;20047;-76
2022/06/07 10:11:41;;;;;;;15.20;4.97;;;;;;;20.69;97.99;100946.66;5071318;28;20021;-76
2022/06/07 10:14:22;;;;;;;18.67;5.15;;;;;;;20.96;99.84;100949.94;5069904;28;20112;-75
2022/06/07 10:16:56;;;;;;;15.23;4.65;;;;;;;20.71;95.80;100952.88;5078663;28;20074;-76
2022/06/07 10:19:47;;;;;;;16.00;5.43;;;;;;;20.71;96.86;100953.78;5075233;28;20032;-76
2022/06/07 10:22:24;;;;;;;9.75;4.18;;;;;;;21.82;93.96;100945.72;5058261;28;20056;-76
2022/06/07 10:25:09;;;;;;;14.63;4.50;;;;;;;21.48;91.16;100944.38;5075342;28;20084;-76
2022/06/07 10:27:45;;;;;;;11.40;3.70;;;;;;;20.82;91.67;100951.59;5081506;28;20587;-76
2022/06/07 10:30:26;;;;;;;17.15;4.65;;;;;;;20.38;93.43;100947.53;5077056;28;20032;-76
2022/06/07 10:33:08;;;;;;;15.45;4.32;;;;;;;20.74;93.30;100945.06;5057614;28;20452;-76
2022/06/07 10:35:59;;;;;;;18.17;4.30;;;;;;;21.04;93.81;100945.13;5075943;28;20129;-76
2022/06/07 10:38:36;;;;;;;17.10;3.85;;;;;;;21.11;94.28;100940.53;5074352;28;20051;-77
2022/06/07 10:41:04;;;;;;;12.75;3.67;;;;;;;20.61;93.00;100949.47;5088350;28;20533;-77
2022/06/07 10:43:59;;;;;;;15.70;4.18;;;;;;;20.89;93.60;100944.22;5085281;28;20039;-76
2022/06/07 10:46:27;;;;;;;12.68;3.67;;;;;;;20.74;95.12;100944.16;5073795;28;20044;-76
2022/06/07 10:49:02;;;;;;;11.05;4.00;;;;;;;20.94;95.71;100947.31;5074457;28;20032;-76
2022/06/07 10:54:26;;;;;;;7.10;3.38;;;;;;;21.50;93.34;100937.72;5073655;28;20541;-76
2022/06/07 10:57:05;;;;;;;14.13;3.38;;;;;;;21.35;96.49;100932.09;5095574;28;20108;-77
2022/06/07 10:59:31;;;;;;;9.93;2.33;;;;;;;21.52;93.04;100938.41;5065863;28;20048;-77
2022/06/07 11:02:15;;;;;;;9.75;3.00;;;;;;;21.51;99.10;100931.97;5074009;28;20455;-77
2022/06/07 11:11:11;;;;;;;12.02;5.15;;;;;;;21.72;90.69;100938.69;5095199;28;20031;-77
2022/06/07 11:13:52;;;;;;;9.98;3.35;;;;;;;21.33;96.43;100935.09;5077966;28;20075;-76
2022/06/07 11:16:36;;;;;;;11.95;3.10;;;;;;;22.13;95.45;100932.59;5073802;28;20146;-77
2022/06/07 11:19:03;;;;;;;11.98;3.17;;;;;;;22.39;92.56;100934.84;5077204;28;20041;-76
2022/06/07 11:21:29;;;;;;;11.38;3.58;;;;;;;23.01;87.81;100930.53;5040419;28;20068;-76
2022/06/07 11:24:18;;;;;;;21.98;3.95;;;;;;;22.73;86.70;100936.94;5074391;28;20028;-76
2022/06/07 11:26:52;;;;;;;15.07;3.25;;;;;;;22.24;91.70;100936.81;5073551;28;20032;-77
2022/06/07 11:29:30;;;;;;;8.07;3.20;;;;;;;22.08;89.71;100941.53;5072568;28;20033;-77
2022/06/07 11:31:57;;;;;;;9.70;3.50;;;;;;;22.37;89.89;100935.06;5078221;28;20036;-76
2022/06/07 11:34:31;;;;;;;11.05;2.90;;;;;;;22.17;88.83;100925.56;5091167;28;20063;-76
2022/06/07 11:37:15;;;;;;;19.85;4.10;;;;;;;21.72;91.86;100930.34;5073701;28;20037;-76
2022/06/07 11:39:41;;;;;;;10.63;3.55;;;;;;;21.75;92.28;100928.03;5076588;28;20193;-76
2022/06/07 11:42:21;;;;;;;11.85;3.65;;;;;;;21.58;94.89;100932.94;5094239;28;20368;-76
2022/06/07 11:45:05;;;;;;;9.68;3.17;;;;;;;21.32;93.92;100927.81;5091829;28;20511;-77